Time;durP1;ratioP1;P1;durP2;ratioP2;P2;SDS_P1;SDS_P2;PMS_P1;PMS_P2;Temp;Humidity;BMP_temperature;BMP_pressure;BME280_temperature;BME280_humidity;BME280_pressure;Samples;Min_cycle;Max_cycle;Signal;HPM_P1;HPM_P2
2023/06/08 00:01:44;;;;;;;5.85;3.45;;;;;;;21.44;39.18;101718.13;16109904;19;129887;-42
2023/06/08 00:07:09;;;;;;;9.02;4.07;;;;;;;21.43;38.99;101705.31;16111200;19;129264;-43
2023/06/08 00:12:31;;;;;;;5.65;3.55;;;;;;;21.41;39.20;101702.78;16112901;19;129566;-45
2023/06/08 00:17:53;;;;;;;6.25;3.45;;;;;;;21.42;38.80;101703.63;16108118;19;129682;-43
2023/06/08 00:23:15;;;;;;;6.93;3.60;;;;;;;21.41;39.09;101708.34;16112858;19;129683;-46
2023/06/08 00:28:37;;;;;;;10.27;3.55;;;;;;;21.40;39.06;101701.09;16111162;19;129864;-43
2023/06/08 00:33:59;;;;;;;6.45;3.83;;;;;;;21.40;38.99;101695.53;16111541;19;129226;-46
2023/06/08 00:39:22;;;;;;;6.00;3.22;;;;;;;21.40;38.93;101701.09;16108237;19;129742;-42
2023/06/08 00:44:44;;;;;;;5.65;3.38;;;;;;;21.39;38.94;101696.59;16108379;19;131371;-44
2023/06/08 00:50:08;;;;;;;6.35;3.22;;;;;;;21.40;39.23;101700.22;16108554;19;131204;-42
2023/06/08 00:55:33;;;;;;;9.38;3.55;;;;;;;21.38;39.21;101689.34;16111881;19;129971;-46
2023/06/08 01:00:59;;;;;;;8.32;3.67;;;;;;;21.37;38.95;101679.31;16110144;19;131453;-47
2023/06/08 01:06:21;;;;;;;6.85;3.03;;;;;;;21.36;38.88;101677.63;16108861;19;129637;-49
2023/06/08 01:11:56;;;;;;;8.13;3.90;;;;;;;21.34;38.81;101666.75;16120205;19;129740;-49
2023/06/08 01:17:24;;;;;;;8.23;3.40;;;;;;;21.36;38.88;101672.03;16122534;19;129334;-51
2023/06/08 01:23:37;;;;;;;6.28;3.47;;;;;;;21.35;38.76;101670.34;16122708;19;129396;-48
2023/06/08 01:28:59;;;;;;;12.38;3.55;;;;;;;21.33;38.74;101672.53;16121586;19;129844;-50
2023/06/08 01:34:21;;;;;;;8.77;4.10;;;;;;;21.32;38.65;101668.91;16116807;19;131589;-49
2023/06/08 01:40:04;;;;;;;7.25;3.60;;;;;;;21.33;38.69;101675.31;16118537;19;131091;-47
2023/06/08 01:45:29;;;;;;;6.25;3.40;;;;;;;21.30;38.90;101671.09;16123374;19;129492;-52
2023/06/08 01:50:52;;;;;;;7.82;4.20;;;;;;;21.29;38.79;101674.97;16123491;19;131079;-45
2023/06/08 01:56:15;;;;;;;7.25;3.58;;;;;;;21.29;38.63;101666.63;16121124;19;129463;-51
2023/06/08 02:01:36;;;;;;;6.82;3.67;;;;;;;21.29;38.84;101660.22;16124617;19;129463;-43
2023/06/08 02:06:58;;;;;;;6.43;3.80;;;;;;;21.29;38.54;101654.66;16122705;19;129526;-44
2023/06/08 02:12:20;;;;;;;10.25;4.28;;;;;;;21.28;38.86;101648.22;16119203;19;130691;-44
2023/06/08 02:17:42;;;;;;;7.82;3.83;;;;;;;21.27;39.07;101649.31;16118462;19;131033;-42
2023/06/08 02:23:04;;;;;;;9.45;3.65;;;;;;;21.27;38.98;101652.09;16119240;19;129495;-42
2023/06/08 02:28:26;;;;;;;7.22;3.80;;;;;;;21.29;38.42;101657.44;16120324;19;129154;-41
2023/06/08 02:33:51;;;;;;;10.15;4.05;;;;;;;21.27;38.50;101659.63;16116576;19;130096;-43
2023/06/08 02:39:14;;;;;;;8.63;4.10;;;;;;;21.27;38.79;101654.06;16119807;19;129974;-43
2023/06/08 02:44:36;;;;;;;7.63;3.55;;;;;;;21.26;38.54;101649.56;16118582;19;130378;-43
2023/06/08 02:49:58;;;;;;;6.28;3.30;;;;;;;21.24;38.48;101654.53;16116813;19;129882;-41
2023/06/08 02:55:20;;;;;;;9.63;3.80;;;;;;;21.24;38.56;101657.31;16115898;19;130378;-42
2023/06/08 03:00:42;;;;;;;6.88;3.08;;;;;;;21.24;38.47;101657.31;16116447;19;130014;-43
2023/06/08 03:06:05;;;;;;;7.20;3.72;;;;;;;21.22;38.57;101654.78;16118613;19;129415;-41
2023/06/08 03:11:27;;;;;;;7.25;3.72;;;;;;;21.21;38.40;101651.16;16118070;19;129390;-43
2023/06/08 03:16:49;;;;;;;8.18;3.75;;;;;;;21.20;38.39;101646.69;16115311;19;131722;-44
2023/06/08 03:22:11;;;;;;;5.65;3.38;;;;;;;21.18;38.57;101640.50;16115622;19;129590;-42
2023/06/08 03:27:33;;;;;;;8.52;3.83;;;;;;;21.19;38.56;101649.72;16115800;19;131274;-44
2023/06/08 03:32:55;;;;;;;8.18;3.53;;;;;;;21.18;38.71;101648.03;16112857;19;129855;-43
2023/06/08 03:38:17;;;;;;;7.18;3.30;;;;;;;21.18;38.50;101648.84;16114063;19;129404;-44
2023/06/08 03:43:39;;;;;;;7.63;3.30;;;;;;;21.17;38.86;101652.72;16114412;19;129868;-43
2023/06/08 03:49:01;;;;;;;5.20;3.00;;;;;;;21.16;38.58;101651.06;16115458;19;129887;-42
2023/06/08 03:54:23;;;;;;;9.10;3.90;;;;;;;21.16;38.56;101645.50;16111287;19;131777;-44
2023/06/08 03:59:45;;;;;;;7.60;3.67;;;;;;;21.15;38.62;101649.38;16111176;19;130119;-41
2023/06/08 04:05:08;;;;;;;7.28;3.40;;;;;;;21.14;38.60;101646.81;16115479;19;133022;-44
2023/06/08 04:10:30;;;;;;;6.95;3.40;;;;;;;21.13;38.52;101645.97;16112490;19;130257;-42
2023/06/08 04:15:52;;;;;;;7.05;3.47;;;;;;;21.13;38.68;101643.19;16113084;19;129180;-45
2023/06/08 04:21:15;;;;;;;9.52;4.05;;;;;;;21.13;38.37;101643.19;16113769;19;129183;-42
2023/06/08 04:26:37;;;;;;;8.15;3.55;;;;;;;21.12;38.79;101643.44;16113343;19;131950;-42
2023/06/08 04:31:59;;;;;;;8.77;3.78;;;;;;;21.12;38.78;101647.06;16112674;19;130469;-45
2023/06/08 04:37:21;;;;;;;6.68;3.90;;;;;;;21.12;38.58;101638.72;16107710;19;129875;-42
2023/06/08 04:42:44;;;;;;;7.68;3.42;;;;;;;21.12;38.57;101635.94;16110634;19;129901;-49
2023/06/08 04:48:07;;;;;;;6.80;3.75;;;;;;;21.12;38.63;101638.72;16126336;19;130793;-52
2023/06/08 04:53:33;;;;;;;8.00;3.35;;;;;;;21.12;38.61;101632.28;16125985;19;129390;-45
2023/06/08 04:58:56;;;;;;;7.18;3.22;;;;;;;21.11;38.60;101642.59;16124183;19;129881;-48
2023/06/08 05:04:18;;;;;;;8.57;3.97;;;;;;;21.10;38.46;101640.91;16126095;19;130220;-47
2023/06/08 05:09:40;;;;;;;6.95;3.70;;;;;;;21.10;38.44;101640.06;16125640;19;130531;-50
2023/06/08 05:15:03;;;;;;;7.82;3.75;;;;;;;21.10;38.49;101645.63;16122367;19;130318;-52
2023/06/08 05:20:26;;;;;;;6.45;3.35;;;;;;;21.09;38.49;101642.00;16124421;19;128891;-46
2023/06/08 05:25:48;;;;;;;12.43;3.40;;;;;;;21.08;38.52;101637.50;16122665;19;130034;-46
2023/06/08 05:31:10;;;;;;;6.25;3.38;;;;;;;21.09;38.50;101643.94;16121477;19;129719;-51
2023/06/08 05:36:32;;;;;;;9.20;3.15;;;;;;;21.08;38.64;101636.69;16124314;19;130329;-48
2023/06/08 05:41:54;;;;;;;7.30;3.53;;;;;;;21.07;38.69;101635.81;16122899;19;129944;-53
2023/06/08 05:47:16;;;;;;;6.43;4.07;;;;;;;21.07;38.29;101630.25;16123902;19;129384;-48
2023/06/08 05:52:38;;;;;;;6.22;3.47;;;;;;;21.06;38.47;101635.00;16121437;19;129684;-46
2023/06/08 05:57:59;;;;;;;7.43;3.22;;;;;;;21.08;38.62;101640.28;16116959;19;129467;-51
2023/06/08 06:03:22;;;;;;;6.50;3.78;;;;;;;21.06;38.46;101634.13;16118538;19;129564;-43
2023/06/08 06:08:44;;;;;;;10.05;3.60;;;;;;;21.04;38.20;101630.78;16116776;19;129796;-45
2023/06/08 06:14:05;;;;;;;6.82;3.65;;;;;;;21.03;38.59;101631.84;16118241;19;129590;-49
2023/06/08 06:19:29;;;;;;;8.23;3.70;;;;;;;21.04;38.23;101641.91;16125337;19;131555;-49
2023/06/08 06:24:51;;;;;;;7.65;3.60;;;;;;;21.03;38.36;101645.78;16123420;19;131005;-47
2023/06/08 06:30:13;;;;;;;6.68;3.58;;;;;;;21.03;38.34;101640.22;16120369;19;134357;-47
2023/06/08 06:35:34;;;;;;;9.13;3.42;;;;;;;21.03;38.57;101641.03;16120375;19;129593;-52
2023/06/08 06:40:56;;;;;;;6.80;3.67;;;;;;;21.04;38.17;101650.25;16122629;19;129551;-47
2023/06/08 06:46:20;;;;;;;9.43;3.40;;;;;;;21.04;38.41;101650.25;16114939;19;131205;-51
2023/06/08 06:51:42;;;;;;;5.45;3.10;;;;;;;21.05;38.43;101650.00;16115646;19;129644;-46
2023/06/08 06:57:04;;;;;;;13.27;3.08;;;;;;;21.04;38.75;101641.91;16118279;19;129831;-49
2023/06/08 07:02:28;;;;;;;10.38;3.55;;;;;;;21.08;38.13;101643.09;16110256;19;130640;-46
2023/06/08 07:07:50;;;;;;;9.13;3.65;;;;;;;21.09;38.62;101633.66;16116496;19;130317;-47
2023/06/08 07:13:12;;;;;;;11.18;4.20;;;;;;;21.12;38.79;101627.59;16115192;19;130081;-43
2023/06/08 07:18:34;;;;;;;11.73;3.95;;;;;;;21.14;38.53;101633.75;16117193;19;131073;-43
2023/06/08 07:23:57;;;;;;;7.57;3.40;;;;;;;21.14;38.84;101630.97;16116318;19;131031;-43
2023/06/08 07:29:39;;;;;;;7.13;3.72;;;;;;;21.16;38.64;101634.38;16114743;19;131108;-50
2023/06/08 07:35:03;;;;;;;10.02;3.88;;;;;;;21.18;38.61;101640.50;16116177;19;130588;-43
2023/06/08 07:40:26;;;;;;;11.47;3.37;;;;;;;21.19;38.85;101633.84;16114271;19;130893;-44
2023/06/08 07:45:48;;;;;;;11.65;4.68;;;;;;;21.19;38.50;101628.28;16115562;19;131299;-44
2023/06/08 07:51:10;;;;;;;10.70;3.92;;;;;;;21.19;39.03;101628.28;16115370;19;129469;-43
2023/06/08 07:56:32;;;;;;;8.55;3.85;;;;;;;21.21;38.88;101631.66;16112490;19;129774;-45
2023/06/08 08:01:53;;;;;;;10.77;4.03;;;;;;;21.23;39.10;101623.09;16112047;19;130256;-44
2023/06/08 08:07:18;;;;;;;6.90;3.73;;;;;;;21.22;38.79;101625.03;16112742;19;129686;-44
2023/06/08 08:12:42;;;;;;;8.10;3.92;;;;;;;21.26;38.96;101610.63;16112496;19;129730;-47
2023/06/08 08:18:04;;;;;;;10.40;3.92;;;;;;;21.27;38.82;101618.72;16111500;19;130163;-46
2023/06/08 08:23:26;;;;;;;9.85;4.35;;;;;;;21.26;39.04;101614.22;16112883;19;130782;-45
2023/06/08 08:28:48;;;;;;;9.70;3.70;;;;;;;21.29;38.99;101612.91;16112100;19;130577;-45
2023/06/08 08:34:11;;;;;;;9.98;4.35;;;;;;;21.30;38.87;101609.00;16108915;19;129215;-45
2023/06/08 08:39:33;;;;;;;8.55;3.15;;;;;;;21.32;39.04;101604.03;16106376;19;130687;-45
2023/06/08 08:44:57;;;;;;;7.78;3.90;;;;;;;21.33;38.96;101595.47;16108144;19;129838;-43
2023/06/08 08:50:19;;;;;;;9.25;4.05;;;;;;;21.34;39.27;101605.50;16109394;19;129497;-47
2023/06/08 08:55:41;;;;;;;8.98;4.38;;;;;;;21.35;39.43;101598.81;16106158;19;130425;-45
2023/06/08 09:01:05;;;;;;;7.85;4.45;;;;;;;21.36;39.52;101599.69;16105173;19;131497;-47
2023/06/08 09:06:30;;;;;;;11.93;4.93;;;;;;;21.38;39.65;101597.50;16106357;19;131630;-44
2023/06/08 09:11:58;;;;;;;14.68;4.63;;;;;;;21.41;40.05;101597.00;16110107;19;129467;-45
2023/06/08 09:17:37;;;;;;;12.38;5.20;;;;;;;21.43;39.78;101599.53;16105837;19;128966;-43
2023/06/08 09:23:17;;;;;;;9.10;4.13;;;;;;;21.44;39.97;101590.09;16106125;19;131301;-43
2023/06/08 09:28:39;;;;;;;9.48;4.13;;;;;;;21.44;40.15;101585.34;16106210;19;130444;-45
2023/06/08 09:34:09;;;;;;;9.00;4.07;;;;;;;21.49;39.90;101582.72;16118296;19;131681;-42
2023/06/08 09:39:58;;;;;;;10.00;3.97;;;;;;;21.50;40.19;101592.75;16118482;19;130301;-45
2023/06/08 09:45:23;;;;;;;9.63;4.20;;;;;;;21.51;40.39;101574.97;16121237;19;131123;-46
2023/06/08 09:50:45;;;;;;;11.52;4.30;;;;;;;21.54;40.12;101573.59;16119757;19;129597;-44
2023/06/08 09:56:08;;;;;;;10.20;4.78;;;;;;;21.54;40.37;101576.38;16121138;19;133401;-46
2023/06/08 10:01:54;;;;;;;10.55;4.70;;;;;;;21.52;40.00;101557.16;16124822;19;130287;-46
2023/06/08 10:07:19;;;;;;;8.40;4.47;;;;;;;21.53;39.99;101569.13;16116316;19;131014;-44
2023/06/08 10:12:43;;;;;;;12.00;4.57;;;;;;;21.54;40.11;101561.63;16118448;19;131415;-47
2023/06/08 10:18:05;;;;;;;12.20;4.10;;;;;;;21.58;39.95;101562.81;16119606;19;131530;-44
2023/06/08 10:23:28;;;;;;;9.43;4.10;;;;;;;21.59;39.94;101547.78;16122144;19;129238;-48
2023/06/08 10:29:08;;;;;;;7.22;4.25;;;;;;;21.62;40.23;101544.50;16120506;19;129456;-45
2023/06/08 10:34:42;;;;;;;9.23;4.20;;;;;;;21.62;40.33;101536.97;16120076;19;130590;-45
2023/06/08 10:40:08;;;;;;;10.73;4.70;;;;;;;21.64;40.42;101533.97;16117503;19;130151;-43
2023/06/08 10:45:31;;;;;;;10.00;4.35;;;;;;;21.64;39.94;101528.41;16118313;19;129752;-43
2023/06/08 10:50:53;;;;;;;10.68;5.30;;;;;;;21.64;40.47;101517.25;16115788;19;131305;-44
2023/06/08 10:56:18;;;;;;;9.40;4.38;;;;;;;21.69;40.02;101508.97;16116039;19;129673;-47
2023/06/08 11:01:45;;;;;;;12.63;4.33;;;;;;;21.74;40.35;101505.44;16114365;19;129151;-42
2023/06/08 11:07:07;;;;;;;11.23;4.40;;;;;;;21.78;39.92;101504.69;16111819;19;132338;-45
2023/06/08 11:12:30;;;;;;;9.82;4.53;;;;;;;21.82;40.03;101503.06;16116426;19;129645;-42
2023/06/08 11:17:58;;;;;;;18.13;5.50;;;;;;;21.88;40.06;101503.16;16114753;19;130669;-47
2023/06/08 11:23:20;;;;;;;10.48;4.40;;;;;;;21.92;39.94;101495.97;16114924;19;130978;-44
2023/06/08 11:28:43;;;;;;;10.55;4.90;;;;;;;21.96;39.89;101489.66;16116106;19;130538;-43
2023/06/08 11:34:13;;;;;;;9.60;4.50;;;;;;;22.01;40.15;101488.88;16113810;19;131343;-44
2023/06/08 11:39:42;;;;;;;12.80;4.50;;;;;;;22.04;40.10;101479.97;16110630;19;130112;-43
2023/06/08 11:45:05;;;;;;;10.50;4.85;;;;;;;22.06;40.21;101468.59;16110029;19;133754;-45
2023/06/08 11:50:27;;;;;;;14.32;4.55;;;;;;;22.05;40.13;101467.75;16115380;19;129301;-44
2023/06/08 11:55:51;;;;;;;11.05;4.30;;;;;;;22.04;40.45;101460.47;16109456;19;130556;-42
2023/06/08 12:01:13;;;;;;;13.95;5.28;;;;;;;22.02;40.45;101457.13;16114212;19;131141;-44
2023/06/08 12:06:35;;;;;;;6.13;4.10;;;;;;;22.01;40.29;101443.44;16115837;19;129649;-43
2023/06/08 12:11:57;;;;;;;13.63;4.82;;;;;;;22.01;40.35;101446.22;16110482;19;129196;-43
2023/06/08 12:17:27;;;;;;;9.18;4.60;;;;;;;22.02;40.21;101432.06;16109816;19;130332;-43
2023/06/08 12:22:50;;;;;;;9.20;4.05;;;;;;;22.01;40.49;101421.16;16112480;19;130851;-47
2023/06/08 12:28:19;;;;;;;8.30;3.97;;;;;;;22.02;40.45;101420.91;16114584;19;129821;-45
2023/06/08 12:33:41;;;;;;;8.73;4.35;;;;;;;22.02;40.35;101418.13;16110752;19;129691;-44
2023/06/08 12:39:03;;;;;;;7.10;3.75;;;;;;;22.03;40.42;101416.16;16110461;19;129254;-45
2023/06/08 12:44:26;;;;;;;11.98;4.43;;;;;;;22.03;40.24;101402.25;16101064;19;131011;-43
2023/06/08 12:49:48;;;;;;;11.93;3.80;;;;;;;22.04;40.27;101401.97;16102666;19;132545;-43
2023/06/08 12:55:10;;;;;;;10.15;4.03;;;;;;;22.05;40.30;101392.50;16104794;19;129235;-44
2023/06/08 13:00:35;;;;;;;8.77;3.63;;;;;;;22.12;40.34;101383.97;16104160;19;130913;-45
2023/06/08 13:05:57;;;;;;;9.52;4.22;;;;;;;22.19;39.98;101386.56;16110894;19;129785;-45
2023/06/08 13:11:19;;;;;;;11.05;4.15;;;;;;;22.23;39.82;101374.66;16119466;19;130628;-43
2023/06/08 13:16:41;;;;;;;6.55;3.60;;;;;;;22.29;39.94;101372.78;16122279;19;130079;-46
2023/06/08 13:22:04;;;;;;;7.13;3.75;;;;;;;22.32;39.83;101369.47;16120828;19;129492;-44
2023/06/08 13:27:26;;;;;;;11.20;3.85;;;;;;;22.36;39.73;101367.00;16122979;19;130304;-46
2023/06/08 13:32:49;;;;;;;8.35;3.33;;;;;;;22.39;39.87;101360.91;16123840;19;130364;-43
2023/06/08 13:38:11;;;;;;;7.18;3.33;;;;;;;22.43;39.53;101359.28;16124433;19;129551;-44
2023/06/08 13:43:33;;;;;;;5.95;3.35;;;;;;;22.44;39.70;101359.00;16120027;19;135185;-44
2023/06/08 13:48:55;;;;;;;8.68;3.53;;;;;;;22.48;39.62;101341.78;16122549;19;130253;-45
2023/06/08 13:54:17;;;;;;;7.93;3.50;;;;;;;22.50;39.70;101334.00;16123675;19;129404;-44
2023/06/08 13:59:40;;;;;;;11.05;3.33;;;;;;;22.51;39.35;101327.31;16123225;19;130910;-45
2023/06/08 14:05:03;;;;;;;5.20;3.13;;;;;;;22.52;39.47;101324.25;16121080;19;130809;-44
2023/06/08 14:10:26;;;;;;;6.45;3.45;;;;;;;22.54;39.72;101324.84;16122000;19;129454;-48
2023/06/08 14:15:48;;;;;;;7.57;3.38;;;;;;;22.55;39.36;101301.44;16117212;19;131167;-49
2023/06/08 14:21:10;;;;;;;7.22;3.35;;;;;;;22.57;39.41;101313.16;16117936;19;130738;-42
2023/06/08 14:26:32;;;;;;;7.32;3.42;;;;;;;22.58;39.21;101291.69;16117832;19;129592;-46
2023/06/08 14:31:54;;;;;;;7.60;3.58;;;;;;;22.60;39.33;101295.06;16116530;19;130717;-45
2023/06/08 14:37:16;;;;;;;6.45;3.42;;;;;;;22.62;39.46;101292.00;16120140;19;129396;-42
2023/06/08 14:42:37;;;;;;;7.47;3.50;;;;;;;22.63;39.36;101283.38;16122268;19;129683;-43
2023/06/08 14:47:59;;;;;;;8.25;3.60;;;;;;;22.63;39.39;101282.53;16118025;19;129170;-50
2023/06/08 14:53:23;;;;;;;6.85;3.53;;;;;;;22.65;39.32;101281.13;16114566;19;129454;-45
2023/06/08 14:58:44;;;;;;;11.02;4.32;;;;;;;22.66;39.44;101274.47;16113385;19;130443;-49
2023/06/08 15:04:09;;;;;;;6.07;4.07;;;;;;;22.67;39.40;101278.94;16116840;19;130323;-48
2023/06/08 15:09:31;;;;;;;6.57;3.72;;;;;;;22.68;39.16;101288.16;16118484;19;131706;-46
2023/06/08 15:14:53;;;;;;;8.43;3.55;;;;;;;22.69;39.46;101282.28;16115356;19;130050;-43
2023/06/08 15:20:15;;;;;;;8.80;3.88;;;;;;;22.72;39.35;101286.50;16113616;19;130719;-43
2023/06/08 15:25:37;;;;;;;9.80;3.90;;;;;;;22.71;39.22;101277.31;16116345;19;129626;-44
2023/06/08 15:30:59;;;;;;;12.82;4.45;;;;;;;22.73;39.40;101283.47;16116179;19;130111;-44
2023/06/08 15:36:21;;;;;;;11.50;3.92;;;;;;;22.74;39.49;101281.50;16113322;19;129356;-43
2023/06/08 15:41:43;;;;;;;8.93;4.38;;;;;;;22.74;39.42;101279.56;16115583;19;129410;-47
2023/06/08 15:47:05;;;;;;;8.30;3.67;;;;;;;22.77;39.71;101277.34;16114253;19;129272;-48
2023/06/08 15:52:27;;;;;;;6.00;3.85;;;;;;;22.77;39.59;101272.59;16113397;19;130007;-43
2023/06/08 15:57:49;;;;;;;7.72;3.60;;;;;;;22.78;39.37;101265.91;16112989;19;130747;-45
2023/06/08 16:03:11;;;;;;;8.70;4.25;;;;;;;22.78;39.19;101262.28;16114533;19;130227;-41
2023/06/08 16:08:33;;;;;;;8.70;3.92;;;;;;;22.79;39.44;101245.28;16113664;19;129823;-45
2023/06/08 16:13:56;;;;;;;8.45;4.28;;;;;;;22.80;39.34;101244.19;16110651;19;129564;-42
2023/06/08 16:19:17;;;;;;;6.10;4.55;;;;;;;22.81;39.36;101228.28;16112412;19;130376;-45
2023/06/08 16:24:41;;;;;;;13.55;4.75;;;;;;;22.82;39.59;101225.25;16113974;19;129738;-45
2023/06/08 16:30:04;;;;;;;8.23;4.22;;;;;;;22.83;39.31;101223.28;16112140;19;129686;-45
2023/06/08 16:35:27;;;;;;;9.93;4.38;;;;;;;22.85;39.51;101219.09;16108163;19;129825;-45
2023/06/08 16:40:49;;;;;;;11.85;4.95;;;;;;;22.86;39.38;101219.97;16116243;19;130952;-42
2023/06/08 16:46:11;;;;;;;9.85;4.22;;;;;;;22.87;39.27;101216.06;16125857;19;130656;-42
2023/06/08 16:51:33;;;;;;;6.60;4.47;;;;;;;22.88;39.35;101209.38;16124442;19;130561;-42
2023/06/08 16:56:55;;;;;;;8.60;4.63;;;;;;;22.87;39.40;101211.31;16125042;19;129780;-47
2023/06/08 17:02:17;;;;;;;7.05;4.90;;;;;;;22.91;39.18;101205.22;16123860;19;129894;-45
2023/06/08 17:07:39;;;;;;;13.15;5.82;;;;;;;22.91;39.58;101206.06;16125235;19;129528;-47
2023/06/08 17:13:01;;;;;;;8.40;4.80;;;;;;;22.92;39.46;101196.59;16123256;19;129778;-45
2023/06/08 17:18:26;;;;;;;12.27;4.57;;;;;;;22.92;39.59;101199.38;16123542;19;129265;-45
2023/06/08 17:23:48;;;;;;;7.70;4.53;;;;;;;22.95;39.26;101201.63;16122801;19;132931;-44
2023/06/08 17:29:10;;;;;;;13.45;5.10;;;;;;;22.96;39.15;101208.91;16124101;19;129701;-43
2023/06/08 17:34:32;;;;;;;13.13;4.35;;;;;;;22.97;39.30;101210.56;16124306;19;130931;-46
2023/06/08 17:39:54;;;;;;;6.82;4.88;;;;;;;22.98;39.30;101206.69;16045310;19;129748;-44
2023/06/08 17:45:16;;;;;;;7.43;4.38;;;;;;;22.99;39.15;101213.94;16121079;19;129657;-43
2023/06/08 17:50:38;;;;;;;10.52;4.40;;;;;;;23.00;39.21;101210.03;16121185;19;129368;-43
2023/06/08 17:56:00;;;;;;;6.30;4.68;;;;;;;23.01;39.10;101214.53;16117358;19;129610;-42
2023/06/08 18:01:22;;;;;;;7.00;5.05;;;;;;;23.02;39.26;101216.16;16118274;19;129322;-41
2023/06/08 18:06:44;;;;;;;7.82;4.38;;;;;;;23.03;39.42;101220.66;16121646;19;129501;-42
2023/06/08 18:12:06;;;;;;;6.40;4.50;;;;;;;23.02;39.18;101218.97;16119663;19;130618;-47
2023/06/08 18:17:28;;;;;;;8.10;4.82;;;;;;;23.03;39.65;101217.84;16121292;19;129638;-42
2023/06/08 18:22:50;;;;;;;6.22;4.57;;;;;;;23.01;39.34;101216.44;16114460;19;130027;-42
2023/06/08 18:28:12;;;;;;;7.18;5.25;;;;;;;22.98;39.32;101215.06;16117892;19;130450;-44
2023/06/08 18:33:34;;;;;;;14.00;5.63;;;;;;;22.98;39.61;101222.56;16116388;19;131324;-44
2023/06/08 18:38:56;;;;;;;8.95;4.50;;;;;;;22.96;39.54;101225.63;16118462;19;129421;-44
2023/06/08 18:44:18;;;;;;;10.63;5.10;;;;;;;22.96;39.45;101219.19;16117898;19;129783;-45
2023/06/08 18:49:40;;;;;;;5.65;4.70;;;;;;;22.94;39.50;101222.28;16113436;19;130127;-42
2023/06/08 18:55:02;;;;;;;7.20;5.10;;;;;;;22.94;39.51;101225.06;16114479;19;130953;-42
2023/06/08 19:00:24;;;;;;;7.15;5.28;;;;;;;22.94;39.26;101232.59;16116697;19;129370;-46
2023/06/08 19:05:46;;;;;;;7.20;4.85;;;;;;;22.92;39.66;101241.22;16110057;19;129843;-47
2023/06/08 19:11:08;;;;;;;8.55;4.50;;;;;;;22.91;39.61;101244.28;16114273;19;130104;-45
2023/06/08 19:16:31;;;;;;;7.00;4.70;;;;;;;22.91;40.04;101244.28;16113956;19;132113;-45
2023/06/08 19:21:53;;;;;;;5.65;4.68;;;;;;;22.88;39.64;101254.00;16110570;19;129299;-41
2023/06/08 19:27:15;;;;;;;7.45;4.95;;;;;;;22.85;39.85;101257.31;16111830;19;131372;-44
2023/06/08 19:32:37;;;;;;;5.65;4.22;;;;;;;22.83;39.57;101253.97;16113797;19;131277;-44
2023/06/08 19:37:59;;;;;;;7.18;5.00;;;;;;;22.83;39.87;101256.75;16112499;19;130942;-47
2023/06/08 19:43:21;;;;;;;7.43;4.90;;;;;;;22.82;40.05;101266.22;16113833;19;129553;-43
2023/06/08 19:48:44;;;;;;;9.43;4.57;;;;;;;22.81;39.99;101264.53;16115459;19;129247;-45
2023/06/08 19:54:07;;;;;;;7.55;5.20;;;;;;;22.82;39.97;101269.00;16110873;19;129993;-41
2023/06/08 19:59:29;;;;;;;6.22;4.40;;;;;;;22.81;39.85;101278.50;16106775;19;129813;-45
2023/06/08 20:04:51;;;;;;;23.77;6.00;;;;;;;22.82;40.27;101269.00;16112271;19;130833;-43
2023/06/08 20:10:13;;;;;;;23.67;4.95;;;;;;;22.83;40.01;101273.50;16111559;19;130210;-43
2023/06/08 20:15:35;;;;;;;11.13;4.82;;;;;;;22.81;39.98;101273.75;16109647;19;130489;-45
2023/06/08 20:20:57;;;;;;;9.20;4.63;;;;;;;22.82;40.27;101285.75;16110435;19;129768;-45
2023/06/08 20:26:21;;;;;;;14.95;4.95;;;;;;;22.81;40.26;101284.06;16112712;19;130181;-45
2023/06/08 20:31:44;;;;;;;16.95;4.78;;;;;;;22.78;40.70;101279.00;16109347;19;129423;-45
2023/06/08 20:37:06;;;;;;;18.50;4.90;;;;;;;22.78;40.50;101287.38;16110496;19;130539;-48
2023/06/08 20:42:28;;;;;;;13.30;5.07;;;;;;;22.77;40.47;101285.72;16111575;19;130624;-52
2023/06/08 20:47:51;;;;;;;8.77;4.68;;;;;;;22.78;40.35;101284.59;16110835;19;131152;-49
2023/06/08 20:53:13;;;;;;;9.82;4.55;;;;;;;22.77;40.62;101294.91;16112867;19;129789;-51
2023/06/08 20:58:35;;;;;;;8.63;4.35;;;;;;;22.76;40.30;101286.81;16115872;19;130631;-48
2023/06/08 21:03:57;;;;;;;9.07;4.80;;;;;;;22.75;40.53;101297.13;16107580;19;129531;-52
2023/06/08 21:09:20;;;;;;;7.60;4.45;;;;;;;22.76;40.56;101300.78;16110110;19;129541;-51
2023/06/08 21:14:42;;;;;;;9.70;4.68;;;;;;;22.75;40.53;101297.13;16111210;19;130075;-49
2023/06/08 21:20:05;;;;;;;12.43;4.93;;;;;;;22.70;40.57;101295.13;16109287;19;129689;-47
2023/06/08 21:25:27;;;;;;;7.82;4.63;;;;;;;22.69;40.37;101299.03;16108868;19;130166;-46
2023/06/08 21:30:49;;;;;;;8.25;4.55;;;;;;;22.67;40.41;101300.41;16123994;19;129583;-46
2023/06/08 21:36:12;;;;;;;7.32;4.43;;;;;;;22.63;40.30;101297.31;16124106;19;129343;-46
2023/06/08 21:41:33;;;;;;;7.57;4.43;;;;;;;22.62;40.04;101304.00;16121885;19;130266;-44
2023/06/08 21:46:55;;;;;;;6.32;4.40;;;;;;;22.60;40.36;101300.63;16121448;19;129662;-43
2023/06/08 21:52:18;;;;;;;10.85;4.50;;;;;;;22.61;40.32;101312.59;16121515;19;129634;-44
2023/06/08 21:57:39;;;;;;;6.50;4.50;;;;;;;22.59;40.13;101304.53;16125294;19;131875;-44
2023/06/08 22:03:01;;;;;;;7.35;4.38;;;;;;;22.57;39.80;101310.38;16124358;19;130250;-46
2023/06/08 22:08:23;;;;;;;7.40;4.10;;;;;;;22.54;40.22;101310.88;16116479;19;129687;-44
2023/06/08 22:13:51;;;;;;;5.85;4.05;;;;;;;22.53;40.16;101311.13;16124513;19;129540;-47
2023/06/08 22:19:18;;;;;;;5.45;4.40;;;;;;;22.51;40.01;101311.41;16123160;19;134119;-46
2023/06/08 22:24:40;;;;;;;8.68;4.30;;;;;;;22.50;39.94;101312.50;16123758;19;129750;-46
2023/06/08 22:30:03;;;;;;;5.10;3.88;;;;;;;22.49;39.94;101316.41;16119200;19;129637;-47
2023/06/08 22:35:25;;;;;;;10.70;4.53;;;;;;;22.49;39.96;101321.16;16121437;19;130458;-44
2023/06/08 22:40:47;;;;;;;6.72;4.30;;;;;;;22.48;39.99;101319.47;16116352;19;129431;-49
2023/06/08 22:46:09;;;;;;;7.28;3.97;;;;;;;22.45;39.97;101309.69;16119838;19;130202;-46
2023/06/08 22:51:33;;;;;;;6.28;4.10;;;;;;;22.44;39.89;101313.59;16123621;19;129693;-48
2023/06/08 22:56:57;;;;;;;6.90;3.60;;;;;;;22.42;39.99;101324.97;16121467;19;129819;-44
2023/06/08 23:02:19;;;;;;;7.13;3.75;;;;;;;22.42;39.98;101313.81;16117088;19;130685;-45
2023/06/08 23:07:43;;;;;;;7.13;4.05;;;;;;;22.42;39.87;101321.38;16116062;19;129420;-46
2023/06/08 23:13:06;;;;;;;7.70;4.10;;;;;;;22.40;39.84;101307.66;16116684;19;129407;-45
2023/06/08 23:18:35;;;;;;;9.38;4.00;;;;;;;22.39;40.16;101308.81;16115717;19;134196;-46
2023/06/08 23:23:58;;;;;;;7.47;3.90;;;;;;;22.39;39.91;101300.44;16117077;19;130326;-48
2023/06/08 23:29:20;;;;;;;6.28;4.13;;;;;;;22.36;39.94;101298.16;16116728;19;129546;-44
2023/06/08 23:34:42;;;;;;;7.85;3.65;;;;;;;22.36;39.82;101295.38;16115280;19;129222;-43
2023/06/08 23:40:06;;;;;;;8.30;3.85;;;;;;;22.35;39.83;101295.63;16115115;19;129564;-47
2023/06/08 23:45:28;;;;;;;7.25;3.90;;;;;;;22.34;39.48;101292.00;16116613;19;129852;-45
2023/06/08 23:50:50;;;;;;;10.73;4.00;;;;;;;22.33;39.69;101293.13;16113125;19;130031;-50
2023/06/08 23:56:12;;;;;;;7.80;3.67;;;;;;;22.32;39.76;101283.06;16115984;19;129591;-46
